Wrigley, Tennessee
Current Conditions -  °F | °C
As of 12:53 AM on Saturday 25 Oct 2014 (Local Time) from KBNA Reporting Station
Few Clouds Few Clouds  
Wind Chill: 50°   Ceiling: Unl
Heat Index: 50°   Visibility: 10mi
Dew Point: 47°   Wind: 0mph
Humidity: 89%   Direction: NA
Pressure: 30.09"   Gusts: NA
Location:  35.8812°N, 87.3203°W
Report Text: KBNA 250553Z 00000KT 10SM FEW250 10/08 A3009 RMK AO2 SLP187 T01000083 10172 20094 402220072 55003
Loading
Personal Weather Stations






























Interactive Weather Map
Tropical Storm Tracking
New forecast layout! Learn more

10-Day Weather Forecast

Advertisements
Track Severe Weather on mobile